createdAt,value
2023-03-10T00:01:56.346Z,101316.78
2023-03-10T00:07:12.007Z,101332.06
2023-03-10T00:09:41.899Z,101335.94
2023-03-10T00:12:30.230Z,101340.00
2023-03-10T00:15:18.276Z,101347.50
2023-03-10T00:17:48.504Z,101348.91
2023-03-10T00:20:19.297Z,101351.38
2023-03-10T00:23:07.277Z,101358.03
2023-03-10T00:25:37.302Z,101357.19
2023-03-10T00:28:07.157Z,101351.66
2023-03-10T00:33:22.923Z,101354.94
2023-03-10T00:36:13.742Z,101368.75
2023-03-10T00:38:45.811Z,101364.34
2023-03-10T00:41:21.348Z,101369.25
2023-03-10T00:43:52.049Z,101360.78
2023-03-10T00:46:22.652Z,101368.22
2023-03-10T00:48:53.028Z,101373.47
2023-03-10T00:51:24.161Z,101376.22
2023-03-10T00:53:54.510Z,101380.91
2023-03-10T00:56:27.427Z,101382.56
2023-03-10T00:59:00.616Z,101391.97
2023-03-10T01:01:34.819Z,101391.97
2023-03-10T01:04:11.614Z,101388.06
2023-03-10T01:06:41.883Z,101390.84
2023-03-10T01:09:11.785Z,101401.88
2023-03-10T01:11:42.228Z,101403.53
2023-03-10T01:14:15.524Z,101404.03
2023-03-10T01:16:45.818Z,101405.69
2023-03-10T01:19:17.213Z,101415.09
2023-03-10T01:21:47.296Z,101419.47
2023-03-10T01:24:18.530Z,101410.38
2023-03-10T01:26:48.656Z,101411.19
2023-03-10T01:29:18.862Z,101417.53
2023-03-10T01:31:48.982Z,101419.16
2023-03-10T01:34:19.051Z,101426.03
2023-03-10T01:36:49.790Z,101422.16
2023-03-10T01:39:19.853Z,101425.41
2023-03-10T01:41:49.696Z,101433.69
2023-03-10T01:44:25.009Z,101433.69
2023-03-10T01:46:58.108Z,101442.50
2023-03-10T01:49:46.954Z,101448.00
2023-03-10T01:52:26.015Z,101443.59
2023-03-10T01:55:09.478Z,101450.78
2023-03-10T01:57:48.491Z,101464.91
2023-03-10T02:00:37.657Z,101459.38
2023-03-10T02:03:19.323Z,101464.59
2023-03-10T02:05:58.422Z,101466.53
2023-03-10T02:08:33.489Z,101465.41
2023-03-10T02:11:04.495Z,101458.25
2023-03-10T02:13:34.563Z,101457.94
2023-03-10T02:16:04.799Z,101462.34
2023-03-10T02:18:35.201Z,101462.34
2023-03-10T02:21:16.977Z,101466.44
2023-03-10T02:24:14.142Z,101463.38
2023-03-10T02:26:53.867Z,101467.25
2023-03-10T02:29:58.363Z,101465.00
2023-03-10T02:32:33.238Z,101470.81
2023-03-10T02:35:04.254Z,101467.25
2023-03-10T02:37:55.130Z,101470.81
2023-03-10T02:40:40.204Z,101472.78
2023-03-10T02:43:34.031Z,101479.09
2023-03-10T02:46:11.954Z,101479.94
2023-03-10T02:48:45.633Z,101476.06
2023-03-10T02:51:37.235Z,101473.81
2023-03-10T02:54:12.865Z,101480.97
2023-03-10T02:56:45.040Z,101472.69
2023-03-10T02:59:33.094Z,101470.72
2023-03-10T03:02:03.469Z,101459.69
2023-03-10T03:04:51.723Z,101468.16
2023-03-10T03:07:21.913Z,101462.66
2023-03-10T03:09:51.906Z,101454.34
2023-03-10T03:12:21.759Z,101457.94
2023-03-10T03:14:52.033Z,101466.75
2023-03-10T03:17:40.285Z,101467.03
2023-03-10T03:20:16.533Z,101466.75
2023-03-10T03:23:04.911Z,101458.75
2023-03-10T03:25:37.496Z,101460.41
2023-03-10T03:28:10.219Z,101457.63
2023-03-10T03:30:58.404Z,101457.63
2023-03-10T03:33:47.205Z,101450.97
2023-03-10T03:36:36.355Z,101448.22
2023-03-10T03:39:10.843Z,101446.28
2023-03-10T03:41:42.819Z,101442.69
2023-03-10T03:44:13.528Z,101434.41
2023-03-10T03:46:43.988Z,101427.75
2023-03-10T03:49:32.165Z,101432.16
2023-03-10T03:52:02.232Z,101428.59
2023-03-10T03:54:32.618Z,101420.00
2023-03-10T03:57:02.889Z,101414.13
2023-03-10T04:02:19.577Z,101407.19
2023-03-10T04:04:49.730Z,101402.78
2023-03-10T04:07:20.178Z,101396.16
2023-03-10T04:09:50.652Z,101398.06
2023-03-10T04:12:20.806Z,101390.63
2023-03-10T04:14:50.756Z,101387.03
2023-03-10T04:17:20.993Z,101373.22
2023-03-10T04:20:11.094Z,101372.91
2023-03-10T04:22:44.698Z,101361.88
2023-03-10T04:25:15.673Z,101353.25
2023-03-10T04:28:04.954Z,101353.25
2023-03-10T04:30:53.823Z,101344.66
2023-03-10T04:33:46.956Z,101331.34
2023-03-10T04:36:18.076Z,101332.16
2023-03-10T04:39:07.332Z,101321.91
2023-03-10T04:41:37.474Z,101309.75
2023-03-10T04:44:09.503Z,101303.09
2023-03-10T04:47:04.091Z,101305.84
2023-03-10T04:49:35.132Z,101297.56
2023-03-10T04:52:05.660Z,101285.72
2023-03-10T04:57:21.609Z,101280.41
2023-03-10T04:59:52.092Z,101274.03
2023-03-10T05:02:22.421Z,101257.47
2023-03-10T05:05:11.960Z,101261.56
2023-03-10T05:07:45.557Z,101251.31
2023-03-10T05:10:15.837Z,101246.63
2023-03-10T05:12:45.838Z,101247.91
2023-03-10T05:15:16.198Z,101249.56
2023-03-10T05:18:04.321Z,101245.66
2023-03-10T05:20:34.613Z,101237.38
2023-03-10T05:23:05.023Z,101234.28
2023-03-10T05:25:35.647Z,101230.38
2023-03-10T05:28:06.090Z,101220.47
2023-03-10T05:33:22.514Z,101212.69
2023-03-10T05:36:13.531Z,101214.94
2023-03-10T05:38:46.126Z,101206.03
2023-03-10T05:41:18.479Z,101204.09
2023-03-10T05:43:52.300Z,101195.81
2023-03-10T05:46:23.572Z,101195.47
2023-03-10T05:49:12.092Z,101196.28
2023-03-10T05:51:42.449Z,101188.81
2023-03-10T05:54:13.990Z,101185.72
2023-03-10T05:56:44.753Z,101169.63
2023-03-10T05:59:14.753Z,101174.03
2023-03-10T06:01:44.847Z,101158.28
2023-03-10T06:04:15.142Z,101159.59
2023-03-10T06:06:45.221Z,101147.41
2023-03-10T06:09:15.084Z,101141.03
2023-03-10T06:11:45.224Z,101142.69
2023-03-10T06:14:15.174Z,101136.34
2023-03-10T06:16:46.999Z,101129.34
2023-03-10T06:19:17.091Z,101121.06
2023-03-10T06:22:05.280Z,101112.47
2023-03-10T06:27:20.801Z,101092.28
2023-03-10T06:29:51.868Z,101080.09
2023-03-10T06:32:40.761Z,101088.38
2023-03-10T06:35:29.344Z,101071.16
2023-03-10T06:38:17.809Z,101063.19
2023-03-10T06:41:06.340Z,101052.63
2023-03-10T06:44:03.710Z,101040.41
2023-03-10T06:46:51.951Z,101032.97
2023-03-10T06:49:21.995Z,101034.59
2023-03-10T06:51:51.861Z,101018.81
2023-03-10T06:54:21.720Z,101013.78
2023-03-10T06:56:52.502Z,101011.81
2023-03-10T06:59:22.606Z,101004.19
2023-03-10T07:01:52.509Z,100996.69
2023-03-10T07:04:22.465Z,100995.22
2023-03-10T07:06:52.438Z,100985.31
2023-03-10T07:09:22.514Z,100996.03
2023-03-10T07:11:52.582Z,100985.00
2023-03-10T07:14:22.472Z,100978.63
2023-03-10T07:16:52.448Z,100973.59
2023-03-10T07:22:09.120Z,100959.97
2023-03-10T07:24:40.394Z,100963.84
2023-03-10T07:27:10.307Z,100958.00
2023-03-10T07:29:40.355Z,100954.09
2023-03-10T07:32:10.549Z,100948.06
2023-03-10T07:34:40.736Z,100948.56
2023-03-10T07:37:11.791Z,100942.22
2023-03-10T07:39:41.929Z,100946.94
2023-03-10T07:42:11.860Z,100931.97
2023-03-10T07:44:41.915Z,100933.59
2023-03-10T07:47:11.869Z,100920.91
2023-03-10T07:49:41.985Z,100915.38
2023-03-10T07:52:11.897Z,100916.53
2023-03-10T07:54:42.020Z,100912.63
2023-03-10T07:57:12.084Z,100918.63
2023-03-10T07:59:42.989Z,100907.09
2023-03-10T08:02:15.819Z,100904.81
2023-03-10T08:04:45.926Z,100903.69
2023-03-10T08:07:16.107Z,100902.06
2023-03-10T08:09:51.284Z,100894.25
2023-03-10T08:12:23.235Z,100903.03
2023-03-10T08:15:13.200Z,100900.28
2023-03-10T08:17:43.345Z,100894.41
2023-03-10T08:20:14.013Z,100886.75
2023-03-10T08:23:01.972Z,100882.53
2023-03-10T08:25:32.084Z,100879.78
2023-03-10T08:28:02.027Z,100882.53
2023-03-10T08:30:32.084Z,100885.63
2023-03-10T08:33:02.057Z,100880.09
2023-03-10T08:35:50.541Z,100880.91
2023-03-10T08:38:39.006Z,100875.38
2023-03-10T08:41:37.457Z,100870.66
2023-03-10T08:44:09.017Z,100869.84
2023-03-10T08:46:39.224Z,100875.38
2023-03-10T08:49:09.420Z,100867.53
2023-03-10T08:51:39.657Z,100866.75
2023-03-10T08:54:11.254Z,100860.91
2023-03-10T08:56:41.799Z,100860.09
2023-03-10T08:59:12.054Z,100860.91
2023-03-10T09:01:42.764Z,100852.59
2023-03-10T09:04:13.293Z,100855.06
2023-03-10T09:06:43.840Z,100852.13
2023-03-10T09:09:15.752Z,100849.34
2023-03-10T09:11:46.557Z,100853.72
2023-03-10T09:14:19.061Z,100846.59
2023-03-10T09:16:49.239Z,100849.34
2023-03-10T09:19:19.124Z,100848.19
2023-03-10T09:21:49.940Z,100849.34
2023-03-10T09:24:21.605Z,100849.66
2023-03-10T09:26:51.731Z,100852.13
2023-03-10T09:29:27.081Z,100849.34
2023-03-10T09:32:08.596Z,100850.50
2023-03-10T09:34:38.775Z,100848.53
2023-03-10T09:37:08.836Z,100850.94
2023-03-10T09:39:38.785Z,100853.44
2023-03-10T09:42:37.943Z,100852.59
2023-03-10T09:45:30.271Z,100854.25
2023-03-10T09:48:26.438Z,100846.25
2023-03-10T09:50:58.837Z,100852.59
2023-03-10T09:53:48.609Z,100847.09
2023-03-10T09:56:30.048Z,100848.19
2023-03-10T09:59:02.390Z,100847.38
2023-03-10T10:01:35.418Z,100857.31
2023-03-10T10:04:28.040Z,100855.69
2023-03-10T10:07:01.029Z,100861.22
2023-03-10T10:10:08.131Z,100859.25
2023-03-10T10:12:38.638Z,100861.22
2023-03-10T10:15:21.283Z,100865.13
2023-03-10T10:18:40.462Z,100870.66
2023-03-10T10:24:07.134Z,100875.84
2023-03-10T10:26:37.208Z,100870.31
2023-03-10T10:29:21.076Z,100877.50
2023-03-10T10:32:15.253Z,100880.25
2023-03-10T10:34:48.145Z,100886.63
2023-03-10T10:37:29.505Z,100884.13
2023-03-10T10:40:00.069Z,100887.72
2023-03-10T10:45:42.525Z,100897.16
2023-03-10T10:48:39.117Z,100889.22
2023-03-10T10:51:31.092Z,100889.22
2023-03-10T10:54:04.044Z,100899.44
2023-03-10T10:56:34.465Z,100895.88
2023-03-10T10:59:22.810Z,100898.31
2023-03-10T11:02:35.846Z,100905.81
2023-03-10T11:05:14.982Z,100911.31
2023-03-10T11:07:46.217Z,100907.44
2023-03-10T11:10:19.933Z,100910.19
2023-03-10T11:13:07.842Z,100914.09
2023-03-10T11:15:44.166Z,100920.44
2023-03-10T11:18:29.220Z,100917.66
2023-03-10T11:21:16.010Z,100924.31
2023-03-10T11:24:36.428Z,100919.63
2023-03-10T11:27:39.706Z,100925.81
2023-03-10T11:30:18.947Z,100923.53
2023-03-10T11:33:13.384Z,100928.22
2023-03-10T11:35:50.211Z,100935.72
2023-03-10T11:38:47.266Z,100940.91
2023-03-10T11:41:23.935Z,100943.19
2023-03-10T11:44:21.856Z,100944.03
2023-03-10T11:47:09.083Z,100947.28
2023-03-10T11:49:42.375Z,100959.13
2023-03-10T11:52:33.375Z,100961.56
2023-03-10T11:55:09.388Z,100952.16
2023-03-10T11:57:47.883Z,100956.88
2023-03-10T12:00:43.896Z,100959.31
2023-03-10T12:03:23.882Z,100961.78
2023-03-10T12:06:26.726Z,100969.25
2023-03-10T12:08:58.892Z,100974.28
2023-03-10T12:11:31.466Z,100973.47
2023-03-10T12:14:03.923Z,100980.94
2023-03-10T12:16:38.991Z,100988.44
2023-03-10T12:19:09.344Z,100988.44
2023-03-10T12:21:39.550Z,100995.41
2023-03-10T12:24:47.137Z,101004.22
2023-03-10T12:27:17.231Z,101005.81
2023-03-10T12:29:47.607Z,101013.84
2023-03-10T12:32:49.335Z,101011.88
2023-03-10T12:35:31.711Z,101016.59
2023-03-10T12:38:40.468Z,101013.84
2023-03-10T12:41:11.225Z,101022.94
2023-03-10T12:43:41.621Z,101033.19
2023-03-10T12:46:15.255Z,101032.88
2023-03-10T12:48:54.209Z,101037.59
2023-03-10T12:51:31.283Z,101033.19
2023-03-10T12:54:08.358Z,101040.16
2023-03-10T12:56:42.374Z,101046.19
2023-03-10T12:59:36.125Z,101040.97
2023-03-10T13:02:14.965Z,101057.25
2023-03-10T13:04:45.670Z,101064.72
2023-03-10T13:07:20.239Z,101065.84
2023-03-10T13:09:52.282Z,101070.88
2023-03-10T13:12:27.743Z,101077.72
2023-03-10T13:15:00.735Z,101077.72
2023-03-10T13:17:48.882Z,101093.22
2023-03-10T13:20:20.252Z,101093.22
2023-03-10T13:23:00.460Z,101095.13
2023-03-10T13:25:30.699Z,101095.97
2023-03-10T13:28:00.586Z,101107.03
2023-03-10T13:30:30.602Z,101109.81
2023-03-10T13:33:04.714Z,101107.88
2023-03-10T14:10:30.592Z,101153.63
2023-03-10T14:13:01.245Z,101161.19
2023-03-10T14:15:40.393Z,101171.44
2023-03-10T14:18:10.625Z,101172.16
2023-03-10T14:20:45.424Z,101169.22
2023-03-10T14:23:21.612Z,101169.22
2023-03-10T14:25:56.788Z,101177.69
2023-03-10T14:28:30.240Z,101170.06
2023-03-10T14:31:02.106Z,101181.06
2023-03-10T14:33:32.891Z,101183.38
2023-03-10T14:36:03.246Z,101178.66
2023-03-10T14:38:33.667Z,101184.56
2023-03-10T14:41:03.894Z,101192.31
2023-03-10T14:43:35.218Z,101192.34
2023-03-10T14:46:07.457Z,101194.78
2023-03-10T14:48:42.162Z,101188.28
2023-03-10T14:51:28.938Z,101194.00
2023-03-10T14:54:02.997Z,101194.28
2023-03-10T14:56:34.434Z,101201.81
2023-03-10T14:59:04.671Z,101193.63
2023-03-10T15:01:35.043Z,101200.97
2023-03-10T15:04:05.430Z,101202.16
2023-03-10T15:06:35.564Z,101205.09
2023-03-10T15:09:05.592Z,101203.97
2023-03-10T15:11:37.562Z,101208.03
2023-03-10T15:14:20.195Z,101206.22
2023-03-10T15:16:50.468Z,101217.28
2023-03-10T15:19:27.770Z,101210.91
2023-03-10T15:21:59.903Z,101213.06
2023-03-10T15:24:48.244Z,101215.66
2023-03-10T15:27:18.396Z,101210.63
2023-03-10T15:29:48.424Z,101218.25
2023-03-10T15:32:18.449Z,101220.19
2023-03-10T15:34:48.574Z,101216.09
2023-03-10T15:37:18.827Z,101214.31
2023-03-10T15:39:49.027Z,101217.56
2023-03-10T15:42:18.990Z,101215.94
2023-03-10T15:44:51.864Z,101215.94
2023-03-10T15:47:22.145Z,101221.47
2023-03-10T15:49:52.224Z,101219.56
2023-03-10T15:52:22.802Z,101225.03
2023-03-10T15:54:53.343Z,101220.94
2023-03-10T15:57:23.940Z,101220.94
2023-03-10T15:59:54.281Z,101219.09
2023-03-10T16:02:25.111Z,101227.28
2023-03-10T16:04:55.298Z,101220.72
2023-03-10T16:07:25.467Z,101221.84
2023-03-10T16:09:55.672Z,101228.34
2023-03-10T16:12:25.698Z,101225.59
2023-03-10T16:14:57.695Z,101236.94
2023-03-10T16:17:27.994Z,101238.09
2023-03-10T16:19:58.353Z,101235.34
2023-03-10T16:22:28.663Z,101237.28
2023-03-10T16:24:58.712Z,101234.00
2023-03-10T16:27:28.685Z,101234.34
2023-03-10T16:29:58.716Z,101240.09
2023-03-10T16:32:28.753Z,101239.94
2023-03-10T16:35:03.592Z,101230.63
2023-03-10T16:37:33.825Z,101234.03
2023-03-10T16:40:04.319Z,101229.31
2023-03-10T16:42:38.886Z,101226.88
2023-03-10T16:45:09.843Z,101224.91
2023-03-10T16:47:40.289Z,101228.00
2023-03-10T16:50:11.095Z,101225.25
2023-03-10T16:52:44.470Z,101228.31
2023-03-10T16:55:19.361Z,101228.31
2023-03-10T16:57:52.451Z,101229.44
2023-03-10T17:00:25.172Z,101234.50
2023-03-10T17:02:55.254Z,101235.28
2023-03-10T17:05:25.918Z,101243.09
2023-03-10T17:07:56.480Z,101238.38
2023-03-10T17:13:14.324Z,101248.09
2023-03-10T17:15:44.265Z,101242.91
2023-03-10T17:18:14.286Z,101247.59
2023-03-10T17:20:44.277Z,101237.69
2023-03-10T17:23:14.383Z,101236.53
2023-03-10T17:25:48.282Z,101237.69
2023-03-10T17:28:18.402Z,101230.84
2023-03-10T17:30:48.752Z,101234.09
2023-03-10T17:33:19.340Z,101226.66
2023-03-10T17:35:49.535Z,101233.78
2023-03-10T17:38:19.678Z,101221.91
2023-03-10T17:40:49.588Z,101225.50
2023-03-10T17:43:33.444Z,101221.91
2023-03-10T17:46:07.309Z,101216.06
2023-03-10T17:48:58.101Z,101207.31
2023-03-10T17:51:31.269Z,101205.34
2023-03-10T17:54:03.976Z,101204.84
2023-03-10T17:56:34.120Z,101204.84
2023-03-10T17:59:04.038Z,101204.84
2023-03-10T18:01:34.220Z,101199.63
2023-03-10T18:04:05.687Z,101199.63
2023-03-10T18:09:23.498Z,101195.22
2023-03-10T18:11:53.664Z,101192.78
2023-03-10T18:14:23.577Z,101193.59
2023-03-10T18:16:53.634Z,101192.56
2023-03-10T18:19:23.903Z,101187.88
2023-03-10T18:21:54.760Z,101188.69
2023-03-10T18:24:24.997Z,101191.47
2023-03-10T18:26:55.077Z,101182.03
2023-03-10T18:29:25.174Z,101182.34
2023-03-10T18:31:55.366Z,101180.91
2023-03-10T18:34:25.385Z,101179.28
2023-03-10T18:36:55.311Z,101176.81
2023-03-10T18:39:25.589Z,101175.06
2023-03-10T18:41:58.554Z,101160.22
2023-03-10T18:44:29.863Z,101158.91
2023-03-10T18:46:59.674Z,101157.78
2023-03-10T18:49:29.500Z,101152.25
2023-03-10T18:51:59.483Z,101147.84
2023-03-10T18:54:29.505Z,101147.34
2023-03-10T18:57:04.083Z,101147.66
2023-03-10T18:59:34.522Z,101144.41
2023-03-10T19:02:04.716Z,101134.47
2023-03-10T19:04:35.011Z,101141.00
2023-03-10T19:07:08.422Z,101132.56
2023-03-10T19:09:38.470Z,101135.31
2023-03-10T19:12:08.989Z,101132.22
2023-03-10T19:14:39.261Z,101131.72
2023-03-10T19:17:09.170Z,101133.69
2023-03-10T19:19:39.317Z,101135.31
2023-03-10T19:22:09.328Z,101127.81
2023-03-10T19:24:39.489Z,101117.09
2023-03-10T19:27:09.588Z,101128.16
2023-03-10T19:29:39.598Z,101121.00
2023-03-10T19:32:30.002Z,101115.47
2023-03-10T19:35:00.020Z,101119.34
2023-03-10T19:37:32.355Z,101110.75
2023-03-10T19:40:02.619Z,101121.78
2023-03-10T19:42:32.688Z,101111.38
2023-03-10T19:45:02.874Z,101116.09
2023-03-10T19:47:33.839Z,101109.13
2023-03-10T19:50:04.095Z,101113.00
2023-03-10T19:52:34.702Z,101117.22
2023-03-10T19:55:04.825Z,101132.66
2023-03-10T19:57:36.837Z,101127.66
2023-03-10T20:00:09.568Z,101133.47
2023-03-10T20:02:41.348Z,101128.78
2023-03-10T20:05:15.698Z,101129.59
2023-03-10T20:07:48.905Z,101133.78
2023-03-10T20:10:20.283Z,101119.97
2023-03-10T20:12:53.396Z,101131.03
2023-03-10T20:15:23.470Z,101132.66
2023-03-10T20:17:53.468Z,101135.09
2023-03-10T20:20:23.716Z,101136.56
2023-03-10T20:22:53.873Z,101136.38
2023-03-10T20:25:26.208Z,101131.66
2023-03-10T20:27:57.158Z,101129.72
2023-03-10T20:30:30.231Z,101124.22
2023-03-10T20:33:02.081Z,101120.59
2023-03-10T20:35:34.819Z,101121.44
2023-03-10T20:38:07.653Z,101118.97
2023-03-10T20:40:40.585Z,101122.88
2023-03-10T20:43:11.964Z,101131.38
2023-03-10T20:45:42.938Z,101118.97
2023-03-10T20:48:13.245Z,101132.50
2023-03-10T20:50:43.506Z,101128.38
2023-03-10T20:53:13.560Z,101135.56
2023-03-10T20:55:44.391Z,101130.84
2023-03-10T20:58:14.671Z,101133.28
2023-03-10T21:00:51.508Z,101136.69
2023-03-10T21:03:23.601Z,101134.41
2023-03-10T21:05:54.102Z,101132.28
2023-03-10T21:08:24.101Z,101130.69
2023-03-10T21:10:54.436Z,101130.69
2023-03-10T21:13:24.795Z,101129.84
2023-03-10T21:15:55.477Z,101124.00
2023-03-10T21:18:25.632Z,101123.53
2023-03-10T21:20:55.576Z,101123.53
2023-03-10T21:23:25.910Z,101121.22
2023-03-10T21:25:55.912Z,101112.94
2023-03-10T21:28:25.755Z,101110.84
2023-03-10T21:30:55.843Z,101114.09
2023-03-10T21:33:25.914Z,101119.41
2023-03-10T21:35:56.391Z,101120.25
2023-03-10T21:38:26.375Z,101115.25
2023-03-10T21:40:56.464Z,101108.38
2023-03-10T21:43:29.359Z,101105.63
2023-03-10T21:45:59.473Z,101104.31
2023-03-10T21:48:29.907Z,101101.53
2023-03-10T21:50:59.998Z,101104.31
2023-03-10T21:53:30.064Z,101099.41
2023-03-10T21:56:00.463Z,101101.88
2023-03-10T21:58:30.750Z,101107.41
2023-03-10T22:03:46.662Z,101097.16
2023-03-10T22:06:16.956Z,101101.03
2023-03-10T22:08:47.096Z,101099.91
2023-03-10T22:11:18.905Z,101098.78
2023-03-10T22:13:49.129Z,101099.91
2023-03-10T22:16:20.400Z,101102.16
2023-03-10T22:18:51.569Z,101104.13
2023-03-10T22:21:22.027Z,101111.91
2023-03-10T22:23:52.214Z,101110.78
2023-03-10T22:26:22.510Z,101117.59
2023-03-10T22:28:52.553Z,101119.34
2023-03-10T22:31:24.389Z,101122.13
2023-03-10T22:33:54.473Z,101124.88
2023-03-10T22:36:24.412Z,101126.00
2023-03-10T22:38:54.456Z,101120.81
2023-03-10T22:41:24.345Z,101129.44
2023-03-10T22:43:54.823Z,101134.94
2023-03-10T22:46:25.598Z,101136.06
2023-03-10T22:48:55.634Z,101150.06
2023-03-10T22:51:26.062Z,101146.00
2023-03-10T22:53:56.296Z,101146.00
2023-03-10T22:56:26.202Z,101145.16
2023-03-10T22:58:56.382Z,101148.25
2023-03-10T23:01:26.564Z,101162.06
2023-03-10T23:03:56.732Z,101168.09
2023-03-10T23:06:30.864Z,101165.31
2023-03-10T23:09:00.986Z,101173.41
2023-03-10T23:11:31.064Z,101179.44
2023-03-10T23:14:05.742Z,101175.03
2023-03-10T23:16:38.483Z,101180.88
2023-03-10T23:19:10.060Z,101189.66
2023-03-10T23:21:40.270Z,101185.56
2023-03-10T23:24:10.363Z,101195.81
2023-03-10T23:26:40.211Z,101192.22
2023-03-10T23:29:10.350Z,101194.97
2023-03-10T23:31:40.428Z,101209.63
2023-03-10T23:34:10.458Z,101205.53
2023-03-10T23:36:40.426Z,101206.25
2023-03-10T23:39:13.345Z,101207.38
2023-03-10T23:41:43.494Z,101211.53
2023-03-10T23:44:13.501Z,101209.72
2023-03-10T23:46:43.429Z,101208.09
2023-03-10T23:49:13.306Z,101210.03
2023-03-10T23:51:43.223Z,101215.66
2023-03-10T23:54:14.215Z,101227.28
2023-03-10T23:56:44.252Z,101236.69
2023-03-10T23:59:14.085Z,101238.34
